sensor_id;sensor_type;location;lat;lon;timestamp;temperature;humidity
22450;DHT22;11392;57.390;-2.468;2022-09-09T00:04:27;14.60;99.90
22450;DHT22;11392;57.390;-2.468;2022-09-09T00:12:23;14.60;99.90
22450;DHT22;11392;57.390;-2.468;2022-09-09T00:15:22;14.70;99.90
22450;DHT22;11392;57.390;-2.468;2022-09-09T00:20:55;14.60;99.90
22450;DHT22;11392;57.390;-2.468;2022-09-09T00:23:30;14.70;99.90
22450;DHT22;11392;57.390;-2.468;2022-09-09T00:26:27;14.70;99.90
22450;DHT22;11392;57.390;-2.468;2022-09-09T00:31:27;14.60;99.90
22450;DHT22;11392;57.390;-2.468;2022-09-09T00:34:02;14.60;99.90
22450;DHT22;11392;57.390;-2.468;2022-09-09T00:36:31;14.60;99.90
22450;DHT22;11392;57.390;-2.468;2022-09-09T00:39:02;14.60;99.90
22450;DHT22;11392;57.390;-2.468;2022-09-09T00:44:20;14.50;99.90
22450;DHT22;11392;57.390;-2.468;2022-09-09T00:47:13;14.60;99.90
22450;DHT22;11392;57.390;-2.468;2022-09-09T00:57:53;14.50;99.90
22450;DHT22;11392;57.390;-2.468;2022-09-09T01:10:58;14.40;99.90
22450;DHT22;11392;57.390;-2.468;2022-09-09T01:13:35;14.30;99.90
22450;DHT22;11392;57.390;-2.468;2022-09-09T01:16:08;14.30;99.90
22450;DHT22;11392;57.390;-2.468;2022-09-09T01:18:44;14.20;99.90
22450;DHT22;11392;57.390;-2.468;2022-09-09T01:24:09;14.20;99.90
22450;DHT22;11392;57.390;-2.468;2022-09-09T01:26:44;14.20;99.90
22450;DHT22;11392;57.390;-2.468;2022-09-09T01:29:16;14.20;99.90
22450;DHT22;11392;57.390;-2.468;2022-09-09T01:32:37;14.20;99.90
22450;DHT22;11392;57.390;-2.468;2022-09-09T01:34:50;14.20;99.90
22450;DHT22;11392;57.390;-2.468;2022-09-09T01:37:18;14.20;99.90
22450;DHT22;11392;57.390;-2.468;2022-09-09T01:39:51;14.20;99.90
22450;DHT22;11392;57.390;-2.468;2022-09-09T01:42:19;14.20;99.90
22450;DHT22;11392;57.390;-2.468;2022-09-09T01:44:46;14.20;99.90
22450;DHT22;11392;57.390;-2.468;2022-09-09T01:47:17;14.20;99.90
22450;DHT22;11392;57.390;-2.468;2022-09-09T01:49:44;14.20;99.90
22450;DHT22;11392;57.390;-2.468;2022-09-09T01:52:12;14.30;99.90
22450;DHT22;11392;57.390;-2.468;2022-09-09T01:54:39;14.30;99.90
22450;DHT22;11392;57.390;-2.468;2022-09-09T01:57:15;14.30;99.90
22450;DHT22;11392;57.390;-2.468;2022-09-09T02:08:20;14.30;99.90
22450;DHT22;11392;57.390;-2.468;2022-09-09T02:10:58;14.30;99.90
22450;DHT22;11392;57.390;-2.468;2022-09-09T02:13:29;14.20;99.90
22450;DHT22;11392;57.390;-2.468;2022-09-09T02:16:07;14.30;99.90
22450;DHT22;11392;57.390;-2.468;2022-09-09T02:21:08;14.30;99.90
22450;DHT22;11392;57.390;-2.468;2022-09-09T02:23:40;14.30;99.90
22450;DHT22;11392;57.390;-2.468;2022-09-09T02:26:10;14.20;99.90
22450;DHT22;11392;57.390;-2.468;2022-09-09T02:28:40;14.20;99.90
22450;DHT22;11392;57.390;-2.468;2022-09-09T02:31:09;14.20;99.90
22450;DHT22;11392;57.390;-2.468;2022-09-09T02:33:42;14.20;99.90
22450;DHT22;11392;57.390;-2.468;2022-09-09T02:36:12;14.20;99.90
22450;DHT22;11392;57.390;-2.468;2022-09-09T02:38:46;14.10;99.90
22450;DHT22;11392;57.390;-2.468;2022-09-09T02:41:20;14.10;99.90
22450;DHT22;11392;57.390;-2.468;2022-09-09T02:43:50;14.10;99.90
22450;DHT22;11392;57.390;-2.468;2022-09-09T02:49:21;14.10;99.90
22450;DHT22;11392;57.390;-2.468;2022-09-09T02:54:43;14.00;99.90
22450;DHT22;11392;57.390;-2.468;2022-09-09T02:57:21;14.00;99.90
22450;DHT22;11392;57.390;-2.468;2022-09-09T02:59:50;13.90;99.90
22450;DHT22;11392;57.390;-2.468;2022-09-09T03:02:20;13.90;99.90
22450;DHT22;11392;57.390;-2.468;2022-09-09T03:04:47;13.90;99.90
22450;DHT22;11392;57.390;-2.468;2022-09-09T03:07:27;13.90;99.90
22450;DHT22;11392;57.390;-2.468;2022-09-09T03:09:54;13.90;99.90
22450;DHT22;11392;57.390;-2.468;2022-09-09T03:12:34;13.80;99.90
22450;DHT22;11392;57.390;-2.468;2022-09-09T03:15:03;13.80;99.90
22450;DHT22;11392;57.390;-2.468;2022-09-09T03:17:30;13.80;99.90
22450;DHT22;11392;57.390;-2.468;2022-09-09T03:19:58;13.80;99.90
22450;DHT22;11392;57.390;-2.468;2022-09-09T03:22:26;13.80;99.90
22450;DHT22;11392;57.390;-2.468;2022-09-09T03:24:54;13.80;99.90
22450;DHT22;11392;57.390;-2.468;2022-09-09T03:27:22;13.80;99.90
22450;DHT22;11392;57.390;-2.468;2022-09-09T03:29:50;13.80;99.90
22450;DHT22;11392;57.390;-2.468;2022-09-09T03:32:24;13.80;99.90
22450;DHT22;11392;57.390;-2.468;2022-09-09T03:34:53;13.80;99.90
22450;DHT22;11392;57.390;-2.468;2022-09-09T03:37:20;13.80;99.90
22450;DHT22;11392;57.390;-2.468;2022-09-09T03:39:52;13.80;99.90
22450;DHT22;11392;57.390;-2.468;2022-09-09T03:42:22;13.80;99.90
22450;DHT22;11392;57.390;-2.468;2022-09-09T03:44:52;13.80;99.90
22450;DHT22;11392;57.390;-2.468;2022-09-09T03:47:20;13.80;99.90
22450;DHT22;11392;57.390;-2.468;2022-09-09T03:49:48;13.80;99.90
22450;DHT22;11392;57.390;-2.468;2022-09-09T03:52:22;13.80;99.90
22450;DHT22;11392;57.390;-2.468;2022-09-09T03:54:55;13.70;99.90
22450;DHT22;11392;57.390;-2.468;2022-09-09T03:57:26;13.80;99.90
22450;DHT22;11392;57.390;-2.468;2022-09-09T03:59:54;13.70;99.90
22450;DHT22;11392;57.390;-2.468;2022-09-09T04:02:21;13.70;99.90
22450;DHT22;11392;57.390;-2.468;2022-09-09T04:04:49;13.80;99.90
22450;DHT22;11392;57.390;-2.468;2022-09-09T04:07:17;13.70;99.90
22450;DHT22;11392;57.390;-2.468;2022-09-09T04:09:45;13.80;99.90
22450;DHT22;11392;57.390;-2.468;2022-09-09T04:12:14;13.70;99.90
22450;DHT22;11392;57.390;-2.468;2022-09-09T04:14:44;13.70;99.90
22450;DHT22;11392;57.390;-2.468;2022-09-09T04:17:12;13.70;99.90
22450;DHT22;11392;57.390;-2.468;2022-09-09T04:19:42;13.80;99.90
22450;DHT22;11392;57.390;-2.468;2022-09-09T04:22:15;13.70;99.90
22450;DHT22;11392;57.390;-2.468;2022-09-09T04:24:43;13.70;99.90
22450;DHT22;11392;57.390;-2.468;2022-09-09T04:27:14;13.70;99.90
22450;DHT22;11392;57.390;-2.468;2022-09-09T04:29:42;13.70;99.90
22450;DHT22;11392;57.390;-2.468;2022-09-09T04:32:13;13.70;99.90
22450;DHT22;11392;57.390;-2.468;2022-09-09T04:34:42;13.70;99.90
22450;DHT22;11392;57.390;-2.468;2022-09-09T04:37:12;13.70;99.90
22450;DHT22;11392;57.390;-2.468;2022-09-09T04:39:40;13.70;99.90
22450;DHT22;11392;57.390;-2.468;2022-09-09T04:42:10;13.70;99.90
22450;DHT22;11392;57.390;-2.468;2022-09-09T04:44:37;13.70;99.90
22450;DHT22;11392;57.390;-2.468;2022-09-09T04:47:05;13.70;99.90
22450;DHT22;11392;57.390;-2.468;2022-09-09T04:49:33;13.80;99.90
22450;DHT22;11392;57.390;-2.468;2022-09-09T04:52:02;13.70;99.90
22450;DHT22;11392;57.390;-2.468;2022-09-09T04:54:29;13.70;99.90
22450;DHT22;11392;57.390;-2.468;2022-09-09T04:56:57;13.80;99.90
22450;DHT22;11392;57.390;-2.468;2022-09-09T04:59:24;13.80;99.90
22450;DHT22;11392;57.390;-2.468;2022-09-09T05:01:52;13.70;99.90
22450;DHT22;11392;57.390;-2.468;2022-09-09T05:04:21;13.80;99.90
22450;DHT22;11392;57.390;-2.468;2022-09-09T05:06:49;13.80;99.90
22450;DHT22;11392;57.390;-2.468;2022-09-09T05:09:16;13.80;99.90
22450;DHT22;11392;57.390;-2.468;2022-09-09T05:11:46;13.80;99.90
22450;DHT22;11392;57.390;-2.468;2022-09-09T05:14:14;13.80;99.90
22450;DHT22;11392;57.390;-2.468;2022-09-09T05:16:45;13.80;99.90
22450;DHT22;11392;57.390;-2.468;2022-09-09T05:19:14;13.80;99.90
22450;DHT22;11392;57.390;-2.468;2022-09-09T05:21:41;13.80;99.90
22450;DHT22;11392;57.390;-2.468;2022-09-09T05:24:09;13.80;99.90
22450;DHT22;11392;57.390;-2.468;2022-09-09T05:26:36;13.80;99.90
22450;DHT22;11392;57.390;-2.468;2022-09-09T05:29:03;13.80;99.90
22450;DHT22;11392;57.390;-2.468;2022-09-09T05:31:32;13.90;99.90
22450;DHT22;11392;57.390;-2.468;2022-09-09T05:34:03;13.80;99.90
22450;DHT22;11392;57.390;-2.468;2022-09-09T05:36:30;13.80;99.90
22450;DHT22;11392;57.390;-2.468;2022-09-09T05:38:58;13.90;99.90
22450;DHT22;11392;57.390;-2.468;2022-09-09T05:41:31;13.90;99.90
22450;DHT22;11392;57.390;-2.468;2022-09-09T05:44:00;13.90;99.90
22450;DHT22;11392;57.390;-2.468;2022-09-09T05:46:28;13.90;99.90
22450;DHT22;11392;57.390;-2.468;2022-09-09T05:48:56;13.90;99.90
22450;DHT22;11392;57.390;-2.468;2022-09-09T05:51:26;13.90;99.90
22450;DHT22;11392;57.390;-2.468;2022-09-09T05:53:57;13.90;99.90
22450;DHT22;11392;57.390;-2.468;2022-09-09T05:56:28;13.90;99.90
22450;DHT22;11392;57.390;-2.468;2022-09-09T05:58:56;13.90;99.90
22450;DHT22;11392;57.390;-2.468;2022-09-09T06:01:27;13.90;99.90
22450;DHT22;11392;57.390;-2.468;2022-09-09T06:03:59;13.90;99.90
22450;DHT22;11392;57.390;-2.468;2022-09-09T06:06:32;13.90;99.90
22450;DHT22;11392;57.390;-2.468;2022-09-09T06:09:06;14.00;99.90
22450;DHT22;11392;57.390;-2.468;2022-09-09T06:11:38;13.90;99.90
22450;DHT22;11392;57.390;-2.468;2022-09-09T06:14:07;14.00;99.90
22450;DHT22;11392;57.390;-2.468;2022-09-09T06:16:35;13.90;99.90
22450;DHT22;11392;57.390;-2.468;2022-09-09T06:19:05;13.90;99.90
22450;DHT22;11392;57.390;-2.468;2022-09-09T06:21:36;13.90;99.90
22450;DHT22;11392;57.390;-2.468;2022-09-09T06:24:05;14.00;99.90
22450;DHT22;11392;57.390;-2.468;2022-09-09T06:26:35;14.00;99.90
22450;DHT22;11392;57.390;-2.468;2022-09-09T06:29:03;14.00;99.90
22450;DHT22;11392;57.390;-2.468;2022-09-09T06:31:33;14.00;99.90
22450;DHT22;11392;57.390;-2.468;2022-09-09T06:34:02;14.00;99.90
22450;DHT22;11392;57.390;-2.468;2022-09-09T06:36:33;13.90;99.90
22450;DHT22;11392;57.390;-2.468;2022-09-09T06:39:00;14.00;99.90
22450;DHT22;11392;57.390;-2.468;2022-09-09T06:41:31;14.00;99.90
22450;DHT22;11392;57.390;-2.468;2022-09-09T06:43:58;13.90;99.90
22450;DHT22;11392;57.390;-2.468;2022-09-09T06:46:28;14.00;99.90
22450;DHT22;11392;57.390;-2.468;2022-09-09T06:48:58;14.00;99.90
22450;DHT22;11392;57.390;-2.468;2022-09-09T06:51:30;14.00;99.90
22450;DHT22;11392;57.390;-2.468;2022-09-09T06:54:00;14.00;99.90
22450;DHT22;11392;57.390;-2.468;2022-09-09T06:56:33;14.10;99.90
22450;DHT22;11392;57.390;-2.468;2022-09-09T06:59:04;14.10;99.90
22450;DHT22;11392;57.390;-2.468;2022-09-09T07:01:35;14.10;99.90
22450;DHT22;11392;57.390;-2.468;2022-09-09T07:04:08;14.20;99.90
22450;DHT22;11392;57.390;-2.468;2022-09-09T07:06:39;14.20;99.90
22450;DHT22;11392;57.390;-2.468;2022-09-09T07:09:11;14.20;99.90
22450;DHT22;11392;57.390;-2.468;2022-09-09T07:11:44;14.30;99.90
22450;DHT22;11392;57.390;-2.468;2022-09-09T07:14:13;14.30;99.90
22450;DHT22;11392;57.390;-2.468;2022-09-09T07:16:43;14.50;99.90
22450;DHT22;11392;57.390;-2.468;2022-09-09T07:19:11;14.50;99.90
22450;DHT22;11392;57.390;-2.468;2022-09-09T07:21:39;14.50;99.90
22450;DHT22;11392;57.390;-2.468;2022-09-09T07:24:10;14.50;99.90
22450;DHT22;11392;57.390;-2.468;2022-09-09T07:26:40;14.50;99.90
22450;DHT22;11392;57.390;-2.468;2022-09-09T07:29:08;14.70;99.90
22450;DHT22;11392;57.390;-2.468;2022-09-09T07:31:38;14.70;99.90
22450;DHT22;11392;57.390;-2.468;2022-09-09T07:34:07;14.80;99.90
22450;DHT22;11392;57.390;-2.468;2022-09-09T07:36:37;14.70;99.90
22450;DHT22;11392;57.390;-2.468;2022-09-09T07:39:07;14.80;99.90
22450;DHT22;11392;57.390;-2.468;2022-09-09T07:41:39;14.80;99.90
22450;DHT22;11392;57.390;-2.468;2022-09-09T07:44:13;14.80;99.90
22450;DHT22;11392;57.390;-2.468;2022-09-09T07:46:41;14.90;99.90
22450;DHT22;11392;57.390;-2.468;2022-09-09T07:49:09;14.90;99.90
22450;DHT22;11392;57.390;-2.468;2022-09-09T07:51:39;14.90;99.90
22450;DHT22;11392;57.390;-2.468;2022-09-09T07:54:11;14.90;99.90
22450;DHT22;11392;57.390;-2.468;2022-09-09T07:56:39;15.00;99.90
22450;DHT22;11392;57.390;-2.468;2022-09-09T07:59:07;14.90;99.90
22450;DHT22;11392;57.390;-2.468;2022-09-09T08:01:40;15.00;99.90
22450;DHT22;11392;57.390;-2.468;2022-09-09T08:04:11;14.90;99.90
22450;DHT22;11392;57.390;-2.468;2022-09-09T08:06:49;14.90;99.90
22450;DHT22;11392;57.390;-2.468;2022-09-09T08:09:17;14.90;99.90
22450;DHT22;11392;57.390;-2.468;2022-09-09T08:11:44;14.90;99.90
22450;DHT22;11392;57.390;-2.468;2022-09-09T08:14:12;14.90;99.90
22450;DHT22;11392;57.390;-2.468;2022-09-09T08:16:43;14.90;99.90
22450;DHT22;11392;57.390;-2.468;2022-09-09T08:19:10;14.90;99.90
22450;DHT22;11392;57.390;-2.468;2022-09-09T08:21:39;14.90;99.90
22450;DHT22;11392;57.390;-2.468;2022-09-09T08:24:08;14.90;99.90
22450;DHT22;11392;57.390;-2.468;2022-09-09T08:26:40;14.90;99.90
22450;DHT22;11392;57.390;-2.468;2022-09-09T08:29:10;14.80;99.90
22450;DHT22;11392;57.390;-2.468;2022-09-09T08:31:40;14.90;99.90
22450;DHT22;11392;57.390;-2.468;2022-09-09T08:34:09;14.90;99.90
22450;DHT22;11392;57.390;-2.468;2022-09-09T08:36:41;14.90;99.90
22450;DHT22;11392;57.390;-2.468;2022-09-09T08:39:11;14.90;99.90
22450;DHT22;11392;57.390;-2.468;2022-09-09T08:58:19;15.20;99.90
22450;DHT22;11392;57.390;-2.468;2022-09-09T09:04:45;15.20;99.90
22450;DHT22;11392;57.390;-2.468;2022-09-09T09:07:58;15.10;99.90
22450;DHT22;11392;57.390;-2.468;2022-09-09T09:10:46;15.10;99.90
22450;DHT22;11392;57.390;-2.468;2022-09-09T09:13:18;15.10;99.90
22450;DHT22;11392;57.390;-2.468;2022-09-09T09:15:55;15.00;99.90
22450;DHT22;11392;57.390;-2.468;2022-09-09T09:18:25;15.10;99.90
22450;DHT22;11392;57.390;-2.468;2022-09-09T09:21:14;15.10;99.90
22450;DHT22;11392;57.390;-2.468;2022-09-09T09:23:56;15.10;99.90
22450;DHT22;11392;57.390;-2.468;2022-09-09T09:26:27;15.20;99.90
22450;DHT22;11392;57.390;-2.468;2022-09-09T09:28:59;15.20;99.90
22450;DHT22;11392;57.390;-2.468;2022-09-09T09:31:28;15.20;99.90
22450;DHT22;11392;57.390;-2.468;2022-09-09T09:33:56;15.30;99.90
22450;DHT22;11392;57.390;-2.468;2022-09-09T09:36:38;15.40;99.90
22450;DHT22;11392;57.390;-2.468;2022-09-09T09:39:07;15.50;99.90
22450;DHT22;11392;57.390;-2.468;2022-09-09T09:41:55;15.60;99.90
22450;DHT22;11392;57.390;-2.468;2022-09-09T09:44:29;15.60;99.90
22450;DHT22;11392;57.390;-2.468;2022-09-09T09:47:18;15.60;99.90
22450;DHT22;11392;57.390;-2.468;2022-09-09T09:50:15;15.60;99.90
22450;DHT22;11392;57.390;-2.468;2022-09-09T09:52:56;15.60;99.90
22450;DHT22;11392;57.390;-2.468;2022-09-09T09:55:24;15.60;99.90
22450;DHT22;11392;57.390;-2.468;2022-09-09T09:57:52;15.60;99.90
22450;DHT22;11392;57.390;-2.468;2022-09-09T10:00:22;15.70;99.90
22450;DHT22;11392;57.390;-2.468;2022-09-09T10:02:50;15.70;99.90
22450;DHT22;11392;57.390;-2.468;2022-09-09T10:05:24;15.60;99.90
22450;DHT22;11392;57.390;-2.468;2022-09-09T10:08:13;15.60;99.90
22450;DHT22;11392;57.390;-2.468;2022-09-09T10:19:04;15.60;99.90
22450;DHT22;11392;57.390;-2.468;2022-09-09T10:27:04;16.10;99.90
22450;DHT22;11392;57.390;-2.468;2022-09-09T10:29:38;16.30;99.90
22450;DHT22;11392;57.390;-2.468;2022-09-09T10:35:04;16.30;99.90
22450;DHT22;11392;57.390;-2.468;2022-09-09T10:43:13;16.30;99.90
22450;DHT22;11392;57.390;-2.468;2022-09-09T10:56:30;16.70;99.90
22450;DHT22;11392;57.390;-2.468;2022-09-09T10:59:08;16.80;99.90
22450;DHT22;11392;57.390;-2.468;2022-09-09T11:01:43;16.70;99.90
22450;DHT22;11392;57.390;-2.468;2022-09-09T11:04:23;16.60;99.90
22450;DHT22;11392;57.390;-2.468;2022-09-09T11:06:54;16.80;99.90
22450;DHT22;11392;57.390;-2.468;2022-09-09T11:09:27;17.00;99.90
22450;DHT22;11392;57.390;-2.468;2022-09-09T11:11:57;17.10;99.90
22450;DHT22;11392;57.390;-2.468;2022-09-09T11:17:10;18.10;99.90
22450;DHT22;11392;57.390;-2.468;2022-09-09T11:19:40;17.80;99.90
22450;DHT22;11392;57.390;-2.468;2022-09-09T11:39:21;19.00;99.90
22450;DHT22;11392;57.390;-2.468;2022-09-09T11:41:51;19.40;99.90
22450;DHT22;11392;57.390;-2.468;2022-09-09T11:44:27;19.00;99.90
22450;DHT22;11392;57.390;-2.468;2022-09-09T11:46:55;19.00;99.90
22450;DHT22;11392;57.390;-2.468;2022-09-09T11:49:29;19.30;99.90
22450;DHT22;11392;57.390;-2.468;2022-09-09T11:51:58;19.50;99.90
22450;DHT22;11392;57.390;-2.468;2022-09-09T11:54:30;19.80;99.90
22450;DHT22;11392;57.390;-2.468;2022-09-09T11:56:59;19.90;99.90
22450;DHT22;11392;57.390;-2.468;2022-09-09T11:59:29;20.30;99.90
22450;DHT22;11392;57.390;-2.468;2022-09-09T12:01:57;20.40;99.90
22450;DHT22;11392;57.390;-2.468;2022-09-09T12:04:27;20.20;99.90
22450;DHT22;11392;57.390;-2.468;2022-09-09T12:07:05;20.40;99.90
22450;DHT22;11392;57.390;-2.468;2022-09-09T12:09:57;20.60;99.90
22450;DHT22;11392;57.390;-2.468;2022-09-09T12:12:32;20.70;99.90
22450;DHT22;11392;57.390;-2.468;2022-09-09T12:15:16;20.70;99.90
22450;DHT22;11392;57.390;-2.468;2022-09-09T12:17:46;20.50;99.90
22450;DHT22;11392;57.390;-2.468;2022-09-09T12:22:45;20.50;99.90
22450;DHT22;11392;57.390;-2.468;2022-09-09T12:30:47;19.60;99.90
22450;DHT22;11392;57.390;-2.468;2022-09-09T12:33:18;19.20;99.90
22450;DHT22;11392;57.390;-2.468;2022-09-09T12:35:53;18.90;99.90
22450;DHT22;11392;57.390;-2.468;2022-09-09T12:38:30;18.60;99.90
22450;DHT22;11392;57.390;-2.468;2022-09-09T12:40:59;18.40;99.90
22450;DHT22;11392;57.390;-2.468;2022-09-09T12:43:28;18.30;99.90
22450;DHT22;11392;57.390;-2.468;2022-09-09T12:46:01;18.20;99.90
22450;DHT22;11392;57.390;-2.468;2022-09-09T12:48:35;18.10;99.90
22450;DHT22;11392;57.390;-2.468;2022-09-09T12:51:06;18.00;99.90
22450;DHT22;11392;57.390;-2.468;2022-09-09T12:53:36;17.90;99.90
22450;DHT22;11392;57.390;-2.468;2022-09-09T12:56:08;17.80;99.90
22450;DHT22;11392;57.390;-2.468;2022-09-09T12:58:47;17.70;99.90
22450;DHT22;11392;57.390;-2.468;2022-09-09T13:03:50;17.80;99.90
22450;DHT22;11392;57.390;-2.468;2022-09-09T13:06:22;17.80;99.90
22450;DHT22;11392;57.390;-2.468;2022-09-09T13:08:57;18.00;99.90
22450;DHT22;11392;57.390;-2.468;2022-09-09T13:11:33;18.20;99.90
22450;DHT22;11392;57.390;-2.468;2022-09-09T13:14:03;18.20;99.90
22450;DHT22;11392;57.390;-2.468;2022-09-09T13:16:32;18.10;99.90
22450;DHT22;11392;57.390;-2.468;2022-09-09T13:19:13;18.10;99.90
22450;DHT22;11392;57.390;-2.468;2022-09-09T13:21:43;17.80;99.90
22450;DHT22;11392;57.390;-2.468;2022-09-09T13:24:31;17.70;99.90
22450;DHT22;11392;57.390;-2.468;2022-09-09T13:29:30;17.60;99.90
22450;DHT22;11392;57.390;-2.468;2022-09-09T13:32:05;17.60;99.90
22450;DHT22;11392;57.390;-2.468;2022-09-09T13:34:35;17.60;99.90
22450;DHT22;11392;57.390;-2.468;2022-09-09T13:37:05;17.60;99.90
22450;DHT22;11392;57.390;-2.468;2022-09-09T13:39:35;17.70;99.90
22450;DHT22;11392;57.390;-2.468;2022-09-09T13:42:04;17.40;99.90
22450;DHT22;11392;57.390;-2.468;2022-09-09T13:44:38;17.40;99.90
22450;DHT22;11392;57.390;-2.468;2022-09-09T13:47:18;17.40;99.90
22450;DHT22;11392;57.390;-2.468;2022-09-09T13:49:47;17.40;99.90
22450;DHT22;11392;57.390;-2.468;2022-09-09T13:52:17;17.40;99.90
22450;DHT22;11392;57.390;-2.468;2022-09-09T13:54:49;17.40;99.90
22450;DHT22;11392;57.390;-2.468;2022-09-09T13:57:20;17.20;99.90
22450;DHT22;11392;57.390;-2.468;2022-09-09T13:59:48;17.40;99.90
22450;DHT22;11392;57.390;-2.468;2022-09-09T14:02:32;17.40;99.90
22450;DHT22;11392;57.390;-2.468;2022-09-09T14:05:01;17.40;99.90
22450;DHT22;11392;57.390;-2.468;2022-09-09T14:07:28;17.50;99.90
22450;DHT22;11392;57.390;-2.468;2022-09-09T14:09:55;17.50;99.90
22450;DHT22;11392;57.390;-2.468;2022-09-09T14:12:24;17.60;99.90
22450;DHT22;11392;57.390;-2.468;2022-09-09T14:14:51;17.80;99.90
22450;DHT22;11392;57.390;-2.468;2022-09-09T14:17:18;18.00;99.90
22450;DHT22;11392;57.390;-2.468;2022-09-09T14:19:46;18.20;99.90
22450;DHT22;11392;57.390;-2.468;2022-09-09T14:22:13;18.50;99.90
22450;DHT22;11392;57.390;-2.468;2022-09-09T14:24:41;18.70;99.90
22450;DHT22;11392;57.390;-2.468;2022-09-09T14:27:08;18.70;99.90
22450;DHT22;11392;57.390;-2.468;2022-09-09T14:29:36;18.70;99.90
22450;DHT22;11392;57.390;-2.468;2022-09-09T14:32:03;18.80;99.90
22450;DHT22;11392;57.390;-2.468;2022-09-09T14:34:36;18.50;99.90
22450;DHT22;11392;57.390;-2.468;2022-09-09T14:37:04;18.50;99.90
22450;DHT22;11392;57.390;-2.468;2022-09-09T14:39:31;18.40;99.90
22450;DHT22;11392;57.390;-2.468;2022-09-09T14:41:59;18.40;99.90
22450;DHT22;11392;57.390;-2.468;2022-09-09T14:44:26;18.40;99.90
22450;DHT22;11392;57.390;-2.468;2022-09-09T14:46:54;18.20;99.90
22450;DHT22;11392;57.390;-2.468;2022-09-09T14:49:21;18.10;99.90
22450;DHT22;11392;57.390;-2.468;2022-09-09T14:51:48;18.00;99.90
22450;DHT22;11392;57.390;-2.468;2022-09-09T14:54:16;17.90;99.90
22450;DHT22;11392;57.390;-2.468;2022-09-09T14:56:43;17.80;99.90
22450;DHT22;11392;57.390;-2.468;2022-09-09T14:59:10;17.70;99.90
22450;DHT22;11392;57.390;-2.468;2022-09-09T15:01:38;17.60;99.90
22450;DHT22;11392;57.390;-2.468;2022-09-09T15:04:06;17.60;99.90
22450;DHT22;11392;57.390;-2.468;2022-09-09T15:06:35;17.50;99.90
22450;DHT22;11392;57.390;-2.468;2022-09-09T15:09:04;17.50;99.90
22450;DHT22;11392;57.390;-2.468;2022-09-09T15:11:35;17.50;99.90
22450;DHT22;11392;57.390;-2.468;2022-09-09T15:14:06;17.40;99.90
22450;DHT22;11392;57.390;-2.468;2022-09-09T15:16:35;17.40;99.90
22450;DHT22;11392;57.390;-2.468;2022-09-09T15:19:03;17.50;99.90
22450;DHT22;11392;57.390;-2.468;2022-09-09T15:21:33;17.60;99.90
22450;DHT22;11392;57.390;-2.468;2022-09-09T15:24:01;17.50;99.90
22450;DHT22;11392;57.390;-2.468;2022-09-09T15:26:28;17.40;99.90
22450;DHT22;11392;57.390;-2.468;2022-09-09T15:28:57;17.40;99.90
22450;DHT22;11392;57.390;-2.468;2022-09-09T15:31:28;17.30;99.90
22450;DHT22;11392;57.390;-2.468;2022-09-09T15:33:58;17.10;99.90
22450;DHT22;11392;57.390;-2.468;2022-09-09T15:39:00;17.10;99.90
22450;DHT22;11392;57.390;-2.468;2022-09-09T15:41:29;17.00;99.90
22450;DHT22;11392;57.390;-2.468;2022-09-09T15:44:00;17.00;99.90
22450;DHT22;11392;57.390;-2.468;2022-09-09T15:46:31;16.90;99.90
22450;DHT22;11392;57.390;-2.468;2022-09-09T15:49:21;16.90;99.90
22450;DHT22;11392;57.390;-2.468;2022-09-09T15:51:55;16.90;99.90
22450;DHT22;11392;57.390;-2.468;2022-09-09T15:54:25;16.70;99.90
22450;DHT22;11392;57.390;-2.468;2022-09-09T15:56:56;16.70;99.90
22450;DHT22;11392;57.390;-2.468;2022-09-09T15:59:26;16.60;99.90
22450;DHT22;11392;57.390;-2.468;2022-09-09T16:01:55;16.60;99.90
22450;DHT22;11392;57.390;-2.468;2022-09-09T16:07:45;16.50;99.90
22450;DHT22;11392;57.390;-2.468;2022-09-09T16:10:14;16.50;99.90
22450;DHT22;11392;57.390;-2.468;2022-09-09T16:12:41;16.40;99.90
22450;DHT22;11392;57.390;-2.468;2022-09-09T16:15:08;16.40;99.90
22450;DHT22;11392;57.390;-2.468;2022-09-09T16:17:35;16.30;99.90
22450;DHT22;11392;57.390;-2.468;2022-09-09T16:20:05;16.30;99.90
22450;DHT22;11392;57.390;-2.468;2022-09-09T16:22:35;16.20;99.90
22450;DHT22;11392;57.390;-2.468;2022-09-09T16:25:02;16.20;99.90
22450;DHT22;11392;57.390;-2.468;2022-09-09T16:27:29;16.20;99.90
22450;DHT22;11392;57.390;-2.468;2022-09-09T16:29:56;16.20;99.90
22450;DHT22;11392;57.390;-2.468;2022-09-09T16:32:23;16.20;99.90
22450;DHT22;11392;57.390;-2.468;2022-09-09T16:34:50;16.20;99.90
22450;DHT22;11392;57.390;-2.468;2022-09-09T16:37:17;16.20;99.90
22450;DHT22;11392;57.390;-2.468;2022-09-09T16:39:44;16.10;99.90
22450;DHT22;11392;57.390;-2.468;2022-09-09T16:42:11;16.10;99.90
22450;DHT22;11392;57.390;-2.468;2022-09-09T16:44:38;16.00;99.90
22450;DHT22;11392;57.390;-2.468;2022-09-09T16:47:05;16.00;99.90
22450;DHT22;11392;57.390;-2.468;2022-09-09T16:49:32;15.90;99.90
22450;DHT22;11392;57.390;-2.468;2022-09-09T16:51:59;15.90;99.90
22450;DHT22;11392;57.390;-2.468;2022-09-09T16:54:26;15.80;99.90
22450;DHT22;11392;57.390;-2.468;2022-09-09T16:56:54;15.70;99.90
22450;DHT22;11392;57.390;-2.468;2022-09-09T16:59:21;15.70;99.90
22450;DHT22;11392;57.390;-2.468;2022-09-09T17:01:50;15.70;99.90
22450;DHT22;11392;57.390;-2.468;2022-09-09T17:04:20;15.60;99.90
22450;DHT22;11392;57.390;-2.468;2022-09-09T17:06:49;15.60;99.90
22450;DHT22;11392;57.390;-2.468;2022-09-09T17:09:18;15.50;99.90
22450;DHT22;11392;57.390;-2.468;2022-09-09T17:11:48;15.40;99.90
22450;DHT22;11392;57.390;-2.468;2022-09-09T17:14:20;15.40;99.90
22450;DHT22;11392;57.390;-2.468;2022-09-09T17:16:47;15.40;99.90
22450;DHT22;11392;57.390;-2.468;2022-09-09T17:19:15;15.30;99.90
22450;DHT22;11392;57.390;-2.468;2022-09-09T17:21:42;15.30;99.90
22450;DHT22;11392;57.390;-2.468;2022-09-09T17:24:29;15.30;99.90
22450;DHT22;11392;57.390;-2.468;2022-09-09T17:26:56;15.20;99.90
22450;DHT22;11392;57.390;-2.468;2022-09-09T17:29:24;15.20;99.90
22450;DHT22;11392;57.390;-2.468;2022-09-09T17:31:51;15.10;99.90
22450;DHT22;11392;57.390;-2.468;2022-09-09T17:34:19;15.10;99.90
22450;DHT22;11392;57.390;-2.468;2022-09-09T17:36:46;15.10;99.90
22450;DHT22;11392;57.390;-2.468;2022-09-09T17:39:13;15.10;99.90
22450;DHT22;11392;57.390;-2.468;2022-09-09T17:41:40;15.00;99.90
22450;DHT22;11392;57.390;-2.468;2022-09-09T17:44:08;15.00;99.90
22450;DHT22;11392;57.390;-2.468;2022-09-09T17:46:38;14.90;99.90
22450;DHT22;11392;57.390;-2.468;2022-09-09T17:49:13;14.90;99.90
22450;DHT22;11392;57.390;-2.468;2022-09-09T17:51:41;14.80;99.90
22450;DHT22;11392;57.390;-2.468;2022-09-09T17:54:14;14.80;99.90
22450;DHT22;11392;57.390;-2.468;2022-09-09T17:56:42;14.80;99.90
22450;DHT22;11392;57.390;-2.468;2022-09-09T17:59:11;14.80;99.90
22450;DHT22;11392;57.390;-2.468;2022-09-09T18:01:43;14.70;99.90
22450;DHT22;11392;57.390;-2.468;2022-09-09T18:04:13;14.70;99.90
22450;DHT22;11392;57.390;-2.468;2022-09-09T18:06:46;14.70;99.90